Time,TemperatureF,DewpointF,PressureIn,WindDirection,WindDirectionDegrees,WindSpeedMPH,WindSpeedGustMPH,Humidity,HourlyPrecipIn,Conditions,Clouds,dailyrainin,SolarRadiationWatts/m^2,SoftwareType,DateUTC
2013-05-04 00:06:00,46.6,44.0,30.35,South,169,0.0,0.0,92,0.00,,,0.00,0,weatherlink.com 1.10,2013-05-04 04:06:00,
2013-05-04 00:22:00,46.2,44.0,30.35,South,169,0.0,0.0,92,0.00,,,0.00,0,weatherlink.com 1.10,2013-05-04 04:22:00,
2013-05-04 00:36:00,45.7,44.0,30.35,South,169,0.0,0.0,92,0.00,,,0.00,0,weatherlink.com 1.10,2013-05-04 04:36:00,
2013-05-04 00:52:00,45.2,43.0,30.34,South,169,0.0,0.0,92,0.00,,,0.00,0,weatherlink.com 1.10,2013-05-04 04:52:00,
2013-05-04 01:06:00,44.6,43.0,30.34,South,169,0.0,0.0,92,0.00,,,0.00,0,weatherlink.com 1.10,2013-05-04 05:06:00,
2013-05-04 01:22:00,44.0,42.0,30.34,South,169,0.0,0.0,93,0.00,,,0.00,0,weatherlink.com 1.10,2013-05-04 05:22:00,
2013-05-04 01:36:00,43.7,42.0,30.33,South,169,0.0,0.0,94,0.00,,,0.00,0,weatherlink.com 1.10,2013-05-04 05:36:00,
2013-05-04 01:52:00,44.0,43.0,30.33,South,169,0.0,0.0,95,0.00,,,0.00,0,weatherlink.com 1.10,2013-05-04 05:52:00,
2013-05-04 02:08:00,43.9,43.0,30.32,South,169,0.0,0.0,95,0.00,,,0.00,0,weatherlink.com 1.10,2013-05-04 06:08:00,
2013-05-04 02:22:00,43.7,42.0,30.31,South,169,0.0,0.0,95,0.00,,,0.00,0,weatherlink.com 1.10,2013-05-04 06:22:00,
2013-05-04 02:38:00,43.4,42.0,30.30,South,169,0.0,0.0,95,0.00,,,0.00,0,weatherlink.com 1.10,2013-05-04 06:38:00,
2013-05-04 02:52:00,43.8,43.0,30.30,South,169,0.0,0.0,95,0.00,,,0.00,0,weatherlink.com 1.10,2013-05-04 06:52:00,
2013-05-04 03:08:00,43.9,43.0,30.30,South,169,0.0,0.0,95,0.00,,,0.00,0,weatherlink.com 1.10,2013-05-04 07:08:00,
2013-05-04 03:22:00,43.7,42.0,30.30,South,169,0.0,0.0,95,0.00,,,0.00,0,weatherlink.com 1.10,2013-05-04 07:22:00,
2013-05-04 03:37:00,43.5,42.0,30.29,South,169,0.0,0.0,95,0.00,,,0.00,0,weatherlink.com 1.10,2013-05-04 07:37:00,
2013-05-04 03:53:00,43.2,42.0,30.29,South,169,0.0,0.0,96,0.00,,,0.00,0,weatherlink.com 1.10,2013-05-04 07:53:00,
2013-05-04 04:08:00,43.3,42.0,30.29,South,169,0.0,0.0,96,0.00,,,0.00,0,weatherlink.com 1.10,2013-05-04 08:08:00,
2013-05-04 04:23:00,43.3,42.0,30.29,South,169,0.0,0.0,96,0.00,,,0.00,0,weatherlink.com 1.10,2013-05-04 08:23:00,
2013-05-04 04:39:00,43.0,42.0,30.28,South,169,0.0,0.0,96,0.00,,,0.00,0,weatherlink.com 1.10,2013-05-04 08:39:00,
2013-05-04 04:53:00,42.9,42.0,30.28,South,169,0.0,0.0,96,0.00,,,0.00,0,weatherlink.com 1.10,2013-05-04 08:53:00,
2013-05-04 05:09:00,43.1,42.0,30.28,South,169,0.0,0.0,96,0.00,,,0.00,0,weatherlink.com 1.10,2013-05-04 09:09:00,
2013-05-04 05:23:00,43.5,43.0,30.28,South,169,0.0,1.0,97,0.00,,,0.00,0,weatherlink.com 1.10,2013-05-04 09:23:00,
2013-05-04 05:39:00,43.8,43.0,30.28,South,169,0.0,1.0,96,0.00,,,0.00,0,weatherlink.com 1.10,2013-05-04 09:39:00,
2013-05-04 05:53:00,43.8,43.0,30.29,South,169,0.0,1.0,96,0.00,,,0.00,0,weatherlink.com 1.10,2013-05-04 09:53:00,
2013-05-04 06:09:00,43.8,43.0,30.29,South,169,0.0,0.0,96,0.00,,,0.00,9,weatherlink.com 1.10,2013-05-04 10:09:00,
2013-05-04 06:23:00,44.1,43.0,30.29,South,169,0.0,1.0,97,0.00,,,0.00,14,weatherlink.com 1.10,2013-05-04 10:23:00,
2013-05-04 06:39:00,44.7,44.0,30.29,South,169,0.0,1.0,97,0.00,,,0.00,19,weatherlink.com 1.10,2013-05-04 10:39:00,
2013-05-04 06:55:00,45.4,45.0,30.29,South,169,0.0,1.0,97,0.00,,,0.00,26,weatherlink.com 1.10,2013-05-04 10:55:00,
2013-05-04 07:09:00,46.1,45.0,30.29,South,169,0.0,1.0,97,0.00,,,0.00,67,weatherlink.com 1.10,2013-05-04 11:09:00,
2013-05-04 07:25:00,47.1,46.0,30.29,North,350,1.0,5.0,97,0.00,,,0.00,35,weatherlink.com 1.10,2013-05-04 11:25:00,
2013-05-04 07:39:00,48.1,47.0,30.30,North,11,0.0,5.0,96,0.00,,,0.00,40,weatherlink.com 1.10,2013-05-04 11:39:00,
2013-05-04 08:10:00,50.5,48.0,30.29,North,360,1.0,5.0,91,0.00,,,0.00,49,weatherlink.com 1.10,2013-05-04 12:10:00,
2013-05-04 08:24:00,51.7,48.0,30.29,North,5,1.0,6.0,88,0.00,,,0.00,72,weatherlink.com 1.10,2013-05-04 12:24:00,
2013-05-04 08:55:00,54.4,48.0,30.30,NW,313,1.0,8.0,78,0.00,,,0.00,60,weatherlink.com 1.10,2013-05-04 12:55:00,
2013-05-04 09:09:00,55.7,47.0,30.29,NNW,342,0.0,6.0,73,0.00,,,0.00,60,weatherlink.com 1.10,2013-05-04 13:09:00,
2013-05-04 09:25:00,57.3,48.0,30.30,NNE,21,0.0,6.0,70,0.00,,,0.00,151,weatherlink.com 1.10,2013-05-04 13:25:00,
2013-05-04 09:39:00,56.8,47.0,30.30,NE,56,0.0,8.0,69,0.00,,,0.00,123,weatherlink.com 1.10,2013-05-04 13:39:00,
2013-05-04 09:55:00,57.8,47.0,30.30,North,360,2.0,6.0,67,0.00,,,0.00,216,weatherlink.com 1.10,2013-05-04 13:55:00,
2013-05-04 10:11:00,58.1,47.0,30.30,NE,42,0.0,6.0,66,0.00,,,0.00,441,weatherlink.com 1.10,2013-05-04 14:11:00,
2013-05-04 10:25:00,58.6,47.0,30.30,ESE,118,0.0,4.0,66,0.00,,,0.00,803,weatherlink.com 1.10,2013-05-04 14:25:00,
2013-05-04 10:41:00,59.0,46.0,30.30,SSW,199,0.0,4.0,63,0.00,,,0.00,840,weatherlink.com 1.10,2013-05-04 14:41:00,
2013-05-04 10:55:00,58.9,47.0,30.30,NNE,32,1.0,5.0,64,0.00,,,0.00,872,weatherlink.com 1.10,2013-05-04 14:55:00,
2013-05-04 11:11:00,59.3,47.0,30.30,ESE,123,2.0,7.0,64,0.00,,,0.00,900,weatherlink.com 1.10,2013-05-04 15:11:00,
2013-05-04 11:25:00,58.8,47.0,30.30,South,182,0.0,7.0,64,0.00,,,0.00,918,weatherlink.com 1.10,2013-05-04 15:25:00,
2013-05-04 11:41:00,58.9,48.0,30.30,NE,42,0.0,6.0,67,0.00,,,0.00,935,weatherlink.com 1.10,2013-05-04 15:41:00,
2013-05-04 11:55:00,59.2,47.0,30.30,South,172,1.0,5.0,65,0.00,,,0.00,951,weatherlink.com 1.10,2013-05-04 15:55:00,
2013-05-04 12:11:00,59.2,47.0,30.29,SE,130,0.0,7.0,65,0.00,,,0.00,965,weatherlink.com 1.10,2013-05-04 16:11:00,
2013-05-04 12:25:00,58.7,47.0,30.29,NW,305,0.0,8.0,66,0.00,,,0.00,969,weatherlink.com 1.10,2013-05-04 16:25:00,
2013-05-04 12:41:00,59.7,47.0,30.30,SSE,165,0.0,8.0,63,0.00,,,0.00,976,weatherlink.com 1.10,2013-05-04 16:41:00,
2013-05-04 12:56:00,59.8,46.0,30.29,East,97,0.0,8.0,60,0.00,,,0.00,976,weatherlink.com 1.10,2013-05-04 16:56:00,
2013-05-04 13:11:00,59.6,45.0,30.29,SSE,159,10.0,10.0,58,0.00,,,0.00,972,weatherlink.com 1.10,2013-05-04 17:11:00,
2013-05-04 13:26:00,60.1,45.0,30.29,SSE,157,0.0,5.0,57,0.00,,,0.00,962,weatherlink.com 1.10,2013-05-04 17:26:00,
2013-05-04 13:41:00,60.8,45.0,30.29,ESE,114,0.0,8.0,56,0.00,,,0.00,947,weatherlink.com 1.10,2013-05-04 17:41:00,
2013-05-04 13:58:00,60.8,45.0,30.28,ESE,109,0.0,11.0,57,0.00,,,0.00,930,weatherlink.com 1.10,2013-05-04 17:58:00,
2013-05-04 14:12:00,59.7,45.0,30.28,South,171,0.0,11.0,58,0.00,,,0.00,914,weatherlink.com 1.10,2013-05-04 18:12:00,
2013-05-04 14:27:00,60.0,44.0,30.28,South,190,0.0,6.0,55,0.00,,,0.00,888,weatherlink.com 1.10,2013-05-04 18:27:00,
2013-05-04 14:42:00,60.3,43.0,30.28,South,186,0.0,7.0,54,0.00,,,0.00,860,weatherlink.com 1.10,2013-05-04 18:42:00,
2013-05-04 14:57:00,59.9,44.0,30.27,SSE,165,0.0,10.0,56,0.00,,,0.00,835,weatherlink.com 1.10,2013-05-04 18:57:00,
2013-05-04 15:11:00,59.3,44.0,30.27,SE,132,2.0,10.0,58,0.00,,,0.00,807,weatherlink.com 1.10,2013-05-04 19:11:00,
2013-05-04 15:27:00,59.9,45.0,30.27,South,191,2.0,7.0,58,0.00,,,0.00,765,weatherlink.com 1.10,2013-05-04 19:27:00,
2013-05-04 15:43:00,58.3,45.0,30.26,SSE,153,3.0,7.0,61,0.00,,,0.00,721,weatherlink.com 1.10,2013-05-04 19:43:00,
2013-05-04 15:57:00,57.9,42.0,30.26,SSW,208,0.0,9.0,56,0.00,,,0.00,684,weatherlink.com 1.10,2013-05-04 19:57:00,
2013-05-04 16:13:00,57.5,43.0,30.26,East,92,2.0,6.0,59,0.00,,,0.00,636,weatherlink.com 1.10,2013-05-04 20:13:00,
2013-05-04 16:28:00,57.4,44.0,30.27,South,191,0.0,8.0,62,0.00,,,0.00,584,weatherlink.com 1.10,2013-05-04 20:28:00,
2013-05-04 16:42:00,56.6,44.0,30.26,SSE,162,0.0,10.0,63,0.00,,,0.00,540,weatherlink.com 1.10,2013-05-04 20:42:00,
2013-05-04 16:58:00,56.8,45.0,30.26,South,187,6.0,8.0,66,0.00,,,0.00,487,weatherlink.com 1.10,2013-05-04 20:58:00,
2013-05-04 17:12:00,56.4,45.0,30.26,NNE,24,0.0,8.0,67,0.00,,,0.00,439,weatherlink.com 1.10,2013-05-04 21:12:00,
2013-05-04 17:28:00,56.8,45.0,30.25,NNE,22,0.0,8.0,64,0.00,,,0.00,383,weatherlink.com 1.10,2013-05-04 21:28:00,
2013-05-04 17:42:00,57.0,44.0,30.25,SE,138,0.0,3.0,63,0.00,,,0.00,338,weatherlink.com 1.10,2013-05-04 21:42:00,
2013-05-04 17:58:00,55.7,44.0,30.25,SSE,162,2.0,8.0,65,0.00,,,0.00,285,weatherlink.com 1.10,2013-05-04 21:58:00,
2013-05-04 18:12:00,55.3,44.0,30.25,South,183,0.0,6.0,65,0.00,,,0.00,239,weatherlink.com 1.10,2013-05-04 22:12:00,
2013-05-04 18:28:00,55.3,44.0,30.25,SSE,159,1.0,6.0,66,0.00,,,0.00,179,weatherlink.com 1.10,2013-05-04 22:28:00,
2013-05-04 18:42:00,54.4,44.0,30.25,SSE,159,0.0,5.0,68,0.00,,,0.00,128,weatherlink.com 1.10,2013-05-04 22:42:00,
2013-05-04 18:58:00,53.6,44.0,30.25,South,169,0.0,6.0,71,0.00,,,0.00,76,weatherlink.com 1.10,2013-05-04 22:58:00,
2013-05-04 19:12:00,52.7,44.0,30.25,South,173,0.0,5.0,72,0.00,,,0.00,42,weatherlink.com 1.10,2013-05-04 23:12:00,
2013-05-04 19:28:00,52.2,44.0,30.25,South,172,0.0,2.0,73,0.00,,,0.00,25,weatherlink.com 1.10,2013-05-04 23:28:00,
2013-05-04 19:44:00,50.9,44.0,30.25,South,175,0.0,5.0,76,0.00,,,0.00,11,weatherlink.com 1.10,2013-05-04 23:44:00,
2013-05-04 19:58:00,50.2,44.0,30.25,South,175,0.0,4.0,78,0.00,,,0.00,0,weatherlink.com 1.10,2013-05-04 23:58:00,
2013-05-04 20:14:00,49.4,44.0,30.25,South,178,0.0,2.0,80,0.00,,,0.00,0,weatherlink.com 1.10,2013-05-05 00:14:00,
2013-05-04 20:28:00,48.8,43.0,30.25,South,178,0.0,1.0,81,0.00,,,0.00,0,weatherlink.com 1.10,2013-05-05 00:28:00,
2013-05-04 20:44:00,48.4,43.0,30.26,South,175,3.0,3.0,81,0.00,,,0.00,0,weatherlink.com 1.10,2013-05-05 00:44:00,
2013-05-04 20:58:00,48.2,43.0,30.26,SW,236,0.0,1.0,82,0.00,,,0.00,0,weatherlink.com 1.10,2013-05-05 00:58:00,
2013-05-04 21:14:00,48.1,43.0,30.27,South,184,0.0,4.0,82,0.00,,,0.00,0,weatherlink.com 1.10,2013-05-05 01:14:00,
2013-05-04 21:29:00,47.8,43.0,30.26,South,184,0.0,3.0,82,0.00,,,0.00,0,weatherlink.com 1.10,2013-05-05 01:29:00,
2013-05-04 21:44:00,47.5,42.0,30.27,South,184,0.0,1.0,82,0.00,,,0.00,0,weatherlink.com 1.10,2013-05-05 01:44:00,
2013-05-04 22:00:00,47.3,42.0,30.27,South,184,0.0,1.0,83,0.00,,,0.00,0,weatherlink.com 1.10,2013-05-05 02:00:00,
2013-05-04 22:14:00,47.3,42.0,30.27,WSW,252,0.0,2.0,82,0.00,,,0.00,0,weatherlink.com 1.10,2013-05-05 02:14:00,
2013-05-04 22:29:00,47.2,42.0,30.27,WSW,251,0.0,2.0,83,0.00,,,0.00,0,weatherlink.com 1.10,2013-05-05 02:29:00,
2013-05-04 22:44:00,47.1,42.0,30.27,WSW,248,0.0,2.0,83,0.00,,,0.00,0,weatherlink.com 1.10,2013-05-05 02:44:00,
2013-05-04 22:59:00,47.0,42.0,30.27,East,98,0.0,4.0,83,0.00,,,0.00,0,weatherlink.com 1.10,2013-05-05 02:59:00,
2013-05-04 23:14:00,46.7,42.0,30.27,East,98,0.0,0.0,83,0.00,,,0.00,0,weatherlink.com 1.10,2013-05-05 03:14:00,
2013-05-04 23:29:00,46.3,42.0,30.27,South,189,0.0,1.0,84,0.00,,,0.00,0,weatherlink.com 1.10,2013-05-05 03:29:00,
2013-05-04 23:45:00,46.1,42.0,30.27,South,189,0.0,0.0,85,0.00,,,0.00,0,weatherlink.com 1.10,2013-05-05 03:45:00,
2013-05-04 23:59:00,45.9,42.0,30.27,South,189,0.0,1.0,85,0.00,,,0.00,0,weatherlink.com 1.10,2013-05-05 03:59:00,